createdAt,value
2023-05-14T00:01:26.168Z,8.30
2023-05-14T00:04:28.968Z,8.21
2023-05-14T00:07:31.757Z,8.22
2023-05-14T00:10:34.167Z,8.16
2023-05-14T00:13:36.920Z,8.13
2023-05-14T00:16:39.376Z,8.04
2023-05-14T00:19:42.863Z,8.19
2023-05-14T00:22:45.458Z,8.19
2023-05-14T00:25:48.436Z,8.22
2023-05-14T00:28:50.996Z,8.11
2023-05-14T00:31:53.864Z,8.20
2023-05-14T00:34:56.267Z,8.21
2023-05-14T00:37:58.905Z,8.16
2023-05-14T00:41:01.348Z,8.04
2023-05-14T00:44:04.044Z,7.95
2023-05-14T00:47:07.351Z,7.96
2023-05-14T00:50:11.293Z,7.97
2023-05-14T00:53:14.109Z,8.10
2023-05-14T00:56:17.184Z,8.16
2023-05-14T00:59:19.869Z,8.19
2023-05-14T01:02:22.382Z,8.14
2023-05-14T01:05:48.894Z,8.03
2023-05-14T01:09:19.035Z,7.81
2023-05-14T01:12:34.723Z,7.70
2023-05-14T01:15:39.559Z,7.62
2023-05-14T01:18:44.150Z,7.65
2023-05-14T01:21:47.039Z,7.79
2023-05-14T01:24:49.639Z,7.59
2023-05-14T01:28:18.749Z,7.72
2023-05-14T01:31:27.984Z,7.74
2023-05-14T01:34:31.715Z,7.56
2023-05-14T01:37:36.610Z,7.52
2023-05-14T01:40:39.765Z,7.57
2023-05-14T01:43:42.548Z,7.55
2023-05-14T01:46:45.306Z,7.51
2023-05-14T01:49:48.069Z,7.46
2023-05-14T01:52:53.536Z,7.34
2023-05-14T01:55:56.994Z,7.31
2023-05-14T01:58:59.399Z,7.29
2023-05-14T02:02:02.311Z,7.22
2023-05-14T02:05:07.018Z,7.20
2023-05-14T02:08:09.803Z,7.25
2023-05-14T02:11:12.542Z,7.27
2023-05-14T02:14:15.383Z,7.13
2023-05-14T02:17:18.114Z,7.16
2023-05-14T02:20:20.621Z,7.30
2023-05-14T02:23:34.043Z,7.15
2023-05-14T02:26:40.860Z,7.23
2023-05-14T02:29:43.483Z,7.07
2023-05-14T02:32:46.414Z,7.02
2023-05-14T02:35:48.914Z,7.05
2023-05-14T02:38:51.590Z,7.02
2023-05-14T02:41:54.797Z,6.97
2023-05-14T02:44:57.251Z,6.93
2023-05-14T02:47:59.996Z,7.13
2023-05-14T02:51:02.772Z,7.17
2023-05-14T02:54:05.737Z,7.22
2023-05-14T02:57:08.755Z,7.24
2023-05-14T03:00:12.334Z,7.03
2023-05-14T03:03:15.489Z,7.04
2023-05-14T03:06:18.367Z,7.09
2023-05-14T03:09:21.270Z,7.18
2023-05-14T03:12:24.133Z,7.19
2023-05-14T03:15:26.670Z,7.19
2023-05-14T03:18:30.725Z,7.25
2023-05-14T03:21:33.437Z,7.28
2023-05-14T03:24:39.308Z,7.24
2023-05-14T03:27:42.087Z,7.08
2023-05-14T03:30:44.952Z,7.12
2023-05-14T03:33:47.791Z,7.14
2023-05-14T03:36:50.442Z,7.19
2023-05-14T03:39:53.334Z,7.07
2023-05-14T03:42:56.182Z,7.12
2023-05-14T03:45:58.848Z,7.29
2023-05-14T03:49:01.790Z,7.51
2023-05-14T03:52:04.552Z,7.41
2023-05-14T03:55:07.459Z,7.56
2023-05-14T03:58:14.575Z,7.56
2023-05-14T04:01:17.221Z,7.62
2023-05-14T04:04:19.917Z,7.53
2023-05-14T04:07:22.597Z,7.50
2023-05-14T04:10:25.597Z,7.52
2023-05-14T04:13:29.310Z,7.67
2023-05-14T04:16:31.872Z,7.92
2023-05-14T04:19:34.755Z,7.87
2023-05-14T04:22:38.690Z,7.98
2023-05-14T04:25:41.381Z,8.00
2023-05-14T04:28:44.081Z,7.98
2023-05-14T04:31:47.037Z,8.10
2023-05-14T04:34:49.774Z,8.18
2023-05-14T04:37:52.318Z,8.38
2023-05-14T04:40:54.956Z,8.76
2023-05-14T04:43:58.985Z,8.97
2023-05-14T04:47:02.080Z,9.17
2023-05-14T04:50:05.023Z,9.39
2023-05-14T04:53:07.524Z,9.79
2023-05-14T04:56:10.868Z,9.86
2023-05-14T04:59:13.772Z,9.85
2023-05-14T05:02:16.150Z,10.09
2023-05-14T05:05:19.028Z,10.18
2023-05-14T05:08:21.466Z,10.24
2023-05-14T05:11:24.231Z,10.35
2023-05-14T05:14:27.067Z,10.49
2023-05-14T05:17:29.904Z,10.63
2023-05-14T05:20:32.816Z,10.82
2023-05-14T05:23:35.243Z,11.17
2023-05-14T05:26:37.906Z,11.48
2023-05-14T05:29:40.902Z,11.74
2023-05-14T05:32:43.995Z,11.97
2023-05-14T05:35:48.199Z,12.23
2023-05-14T05:38:50.700Z,12.28
2023-05-14T05:41:54.439Z,12.38
2023-05-14T05:44:57.156Z,12.54
2023-05-14T05:47:59.687Z,12.71
2023-05-14T05:51:02.509Z,13.06
2023-05-14T05:54:05.011Z,13.42
2023-05-14T05:57:08.016Z,13.95
2023-05-14T06:00:14.213Z,14.13
2023-05-14T06:03:16.801Z,14.43
2023-05-14T06:06:19.650Z,14.36
2023-05-14T06:09:22.043Z,14.56
2023-05-14T06:12:24.790Z,14.77
2023-05-14T06:15:27.467Z,14.97
2023-05-14T06:18:29.924Z,15.21
2023-05-14T06:21:32.630Z,15.26
2023-05-14T06:24:35.359Z,15.28
2023-05-14T06:27:38.076Z,15.44
2023-05-14T06:30:40.753Z,15.51
2023-05-14T06:33:43.332Z,15.53
2023-05-14T06:36:46.094Z,15.69
2023-05-14T06:39:50.516Z,15.81
2023-05-14T06:42:53.178Z,15.85
2023-05-14T06:45:56.063Z,16.19
2023-05-14T06:48:59.696Z,16.39
2023-05-14T06:52:03.648Z,16.49
2023-05-14T06:55:06.521Z,16.62
2023-05-14T06:58:09.747Z,16.67
2023-05-14T07:01:12.769Z,16.61
2023-05-14T07:04:15.466Z,16.46
2023-05-14T07:07:20.741Z,16.71
2023-05-14T07:10:23.706Z,16.86
2023-05-14T07:13:28.645Z,16.99
2023-05-14T07:16:31.658Z,16.88
2023-05-14T07:19:34.182Z,17.02
2023-05-14T07:22:37.026Z,17.22
2023-05-14T07:25:40.837Z,17.41
2023-05-14T07:28:43.630Z,17.52
2023-05-14T07:31:46.579Z,17.76
2023-05-14T07:34:49.542Z,17.81
2023-05-14T07:37:52.635Z,18.06
2023-05-14T07:40:55.128Z,18.24
2023-05-14T07:43:57.808Z,18.09
2023-05-14T07:47:00.548Z,18.64
2023-05-14T07:50:03.674Z,18.80
2023-05-14T07:53:06.569Z,19.16
2023-05-14T07:56:09.015Z,19.36
2023-05-14T07:59:11.603Z,19.18
2023-05-14T08:02:16.070Z,18.99
2023-05-14T08:05:18.663Z,19.25
2023-05-14T08:08:21.737Z,19.17
2023-05-14T08:11:24.385Z,19.13
2023-05-14T08:14:27.330Z,18.86
2023-05-14T08:17:30.240Z,18.56
2023-05-14T08:20:32.813Z,18.54
2023-05-14T08:23:35.799Z,18.70
2023-05-14T08:26:38.988Z,18.58
2023-05-14T08:29:41.780Z,18.70
2023-05-14T08:32:44.250Z,18.70
2023-05-14T08:35:47.070Z,18.56
2023-05-14T08:38:50.467Z,18.76
2023-05-14T08:41:53.786Z,18.73
2023-05-14T08:45:05.816Z,18.80
2023-05-14T08:48:13.494Z,18.97
2023-05-14T08:51:16.105Z,19.02
2023-05-14T08:54:22.561Z,19.13
2023-05-14T08:57:26.564Z,19.37
2023-05-14T09:00:29.823Z,19.49
2023-05-14T09:03:32.785Z,19.56
2023-05-14T09:06:37.835Z,19.31
2023-05-14T09:09:40.818Z,19.54
2023-05-14T09:12:43.257Z,19.49
2023-05-14T09:15:48.057Z,19.40
2023-05-14T09:18:51.447Z,19.40
2023-05-14T09:21:58.326Z,19.75
2023-05-14T09:25:06.676Z,20.10
2023-05-14T09:28:09.679Z,20.57
2023-05-14T09:31:12.418Z,20.75
2023-05-14T09:34:30.680Z,20.81
2023-05-14T09:37:36.716Z,20.96
2023-05-14T09:40:39.375Z,21.23
2023-05-14T09:43:42.001Z,21.47
2023-05-14T09:46:45.699Z,21.75
2023-05-14T09:49:49.234Z,22.29
2023-05-14T09:52:51.658Z,22.27
2023-05-14T09:55:54.289Z,22.70
2023-05-14T09:58:56.829Z,22.71
2023-05-14T10:01:59.956Z,22.61
2023-05-14T10:05:06.019Z,22.68
2023-05-14T10:08:35.629Z,22.25
2023-05-14T10:11:42.826Z,22.26
2023-05-14T10:14:49.827Z,21.70
2023-05-14T10:17:56.837Z,21.45
2023-05-14T10:21:10.457Z,21.08
2023-05-14T10:24:13.337Z,20.95
2023-05-14T10:27:17.463Z,20.58
2023-05-14T10:30:23.268Z,20.72
2023-05-14T10:33:26.204Z,20.70
2023-05-14T10:36:29.047Z,20.65
2023-05-14T10:39:51.856Z,20.54
2023-05-14T10:42:59.144Z,20.52
2023-05-14T10:46:02.790Z,20.52
2023-05-14T10:49:05.397Z,20.22
2023-05-14T10:52:09.487Z,20.14
2023-05-14T10:55:16.933Z,20.04
2023-05-14T10:58:19.597Z,20.09
2023-05-14T11:01:24.148Z,20.03
2023-05-14T11:04:27.830Z,20.08
2023-05-14T11:07:35.999Z,19.94
2023-05-14T11:10:39.430Z,19.96
2023-05-14T11:13:42.944Z,20.04
2023-05-14T11:16:47.161Z,19.93
2023-05-14T11:19:51.161Z,19.88
2023-05-14T11:22:53.760Z,19.89
2023-05-14T11:25:57.125Z,19.87
2023-05-14T11:29:00.080Z,19.84
2023-05-14T11:32:06.049Z,19.96
2023-05-14T11:35:08.914Z,20.05
2023-05-14T11:38:21.278Z,20.07
2023-05-14T11:41:24.070Z,20.09
2023-05-14T11:44:26.698Z,20.10
2023-05-14T11:47:29.960Z,20.01
2023-05-14T11:50:36.670Z,19.99
2023-05-14T11:53:39.385Z,19.91
2023-05-14T11:56:41.941Z,19.68
2023-05-14T11:59:45.347Z,19.58
2023-05-14T12:02:49.813Z,19.51
2023-05-14T12:05:59.921Z,19.38
2023-05-14T12:09:05.499Z,19.26
2023-05-14T12:12:10.118Z,19.08
2023-05-14T12:15:13.801Z,18.97
2023-05-14T12:18:24.552Z,18.98
2023-05-14T12:21:29.090Z,19.05
2023-05-14T12:24:31.723Z,19.11
2023-05-14T12:27:37.811Z,19.13
2023-05-14T12:30:41.322Z,19.11
2023-05-14T12:33:43.690Z,19.07
2023-05-14T12:36:46.254Z,19.07
2023-05-14T12:39:48.830Z,19.05
2023-05-14T12:42:51.344Z,19.07
2023-05-14T12:45:53.946Z,18.90
2023-05-14T12:48:57.110Z,18.77
2023-05-14T12:52:17.413Z,18.80
2023-05-14T12:55:22.522Z,18.76
2023-05-14T12:58:24.945Z,18.68
2023-05-14T13:01:27.590Z,18.48
2023-05-14T13:04:30.069Z,18.36
2023-05-14T13:07:32.903Z,18.20
2023-05-14T13:10:36.099Z,18.01
2023-05-14T13:13:38.509Z,17.84
2023-05-14T13:16:41.139Z,17.78
2023-05-14T13:19:43.614Z,17.70
2023-05-14T13:22:46.490Z,17.66
2023-05-14T13:25:50.019Z,17.64
2023-05-14T13:28:52.918Z,17.72
2023-05-14T13:31:55.543Z,17.83
2023-05-14T13:34:58.008Z,17.87
2023-05-14T13:38:00.762Z,17.93
2023-05-14T13:41:03.845Z,18.07
2023-05-14T13:44:09.435Z,17.95
2023-05-14T13:47:12.180Z,17.95
2023-05-14T13:50:14.822Z,17.95
2023-05-14T13:53:18.021Z,17.86
2023-05-14T13:56:21.495Z,17.89
2023-05-14T13:59:24.051Z,17.82
2023-05-14T14:02:26.550Z,17.91
2023-05-14T14:05:29.709Z,17.73
2023-05-14T14:08:32.409Z,17.62
2023-05-14T14:11:35.412Z,17.56
2023-05-14T14:14:37.743Z,17.37
2023-05-14T14:17:41.861Z,17.24
2023-05-14T14:20:44.344Z,17.18
2023-05-14T14:23:47.387Z,17.04
2023-05-14T14:26:49.925Z,16.96
2023-05-14T14:29:52.381Z,16.87
2023-05-14T14:32:55.096Z,16.76
2023-05-14T14:35:57.588Z,16.72
2023-05-14T14:39:00.158Z,16.69
2023-05-14T14:42:02.842Z,16.56
2023-05-14T14:45:06.115Z,16.41
2023-05-14T14:48:33.940Z,16.30
2023-05-14T14:51:36.655Z,16.07
2023-05-14T14:54:39.161Z,15.91
2023-05-14T14:57:41.807Z,15.69
2023-05-14T15:00:44.393Z,15.58
2023-05-14T15:03:48.430Z,15.54
2023-05-14T15:06:50.830Z,15.75
2023-05-14T15:09:53.400Z,15.87
2023-05-14T15:12:59.023Z,15.89
2023-05-14T15:16:01.541Z,15.77
2023-05-14T15:19:04.185Z,15.67
2023-05-14T15:22:06.713Z,15.45
2023-05-14T15:25:09.628Z,15.36
2023-05-14T15:28:12.195Z,15.41
2023-05-14T15:31:14.658Z,15.34
2023-05-14T15:34:17.252Z,15.27
2023-05-14T15:37:19.650Z,15.15
2023-05-14T15:40:22.371Z,15.13
2023-05-14T15:43:25.144Z,14.90
2023-05-14T15:46:27.707Z,14.97
2023-05-14T15:49:30.368Z,15.16
2023-05-14T15:52:32.838Z,15.03
2023-05-14T15:55:35.632Z,14.81
2023-05-14T15:58:38.374Z,14.93
2023-05-14T16:01:40.951Z,15.01
2023-05-14T16:04:45.282Z,14.92
2023-05-14T16:07:47.777Z,14.74
2023-05-14T16:10:50.272Z,14.34
2023-05-14T16:13:53.015Z,14.68
2023-05-14T16:16:55.491Z,14.80
2023-05-14T16:19:59.445Z,14.97
2023-05-14T16:23:01.885Z,15.05
2023-05-14T16:26:05.740Z,14.96
2023-05-14T16:29:08.437Z,14.77
2023-05-14T16:32:10.967Z,14.34
2023-05-14T16:35:13.867Z,14.52
2023-05-14T16:38:16.376Z,14.22
2023-05-14T16:41:18.917Z,13.93
2023-05-14T16:44:23.217Z,13.69
2023-05-14T16:47:38.965Z,13.84
2023-05-14T16:50:41.574Z,14.14
2023-05-14T16:53:44.073Z,14.23
2023-05-14T16:56:49.241Z,14.39
2023-05-14T16:59:52.260Z,14.47
2023-05-14T17:02:54.779Z,14.56
2023-05-14T17:05:57.522Z,14.58
2023-05-14T17:09:00.037Z,14.57
2023-05-14T17:12:02.854Z,14.55
2023-05-14T17:15:07.312Z,14.51
2023-05-14T17:18:12.068Z,14.49
2023-05-14T17:21:15.212Z,14.48
2023-05-14T17:24:17.677Z,14.44
2023-05-14T17:27:20.809Z,14.21
2023-05-14T17:30:23.475Z,14.16
2023-05-14T17:33:26.022Z,13.90
2023-05-14T17:36:28.724Z,13.89
2023-05-14T17:39:31.234Z,13.75
2023-05-14T17:42:33.867Z,13.77
2023-05-14T17:45:46.264Z,13.95
2023-05-14T17:48:56.646Z,13.96
2023-05-14T17:51:59.248Z,13.93
2023-05-14T17:55:01.659Z,14.01
2023-05-14T17:58:04.316Z,13.99
2023-05-14T18:01:06.917Z,14.07
2023-05-14T18:04:10.075Z,14.02
2023-05-14T18:07:12.692Z,13.82
2023-05-14T18:10:15.123Z,13.74
2023-05-14T18:13:18.294Z,13.67
2023-05-14T18:16:21.033Z,13.53
2023-05-14T18:19:25.650Z,13.56
2023-05-14T18:22:28.481Z,13.76
2023-05-14T18:25:31.449Z,13.77
2023-05-14T18:28:34.231Z,13.75
2023-05-14T18:31:36.884Z,13.89
2023-05-14T18:34:39.288Z,13.87
2023-05-14T18:37:41.925Z,13.89
2023-05-14T18:40:44.681Z,13.92
2023-05-14T18:43:47.244Z,13.90
2023-05-14T18:46:50.392Z,13.65
2023-05-14T18:49:55.974Z,13.54
2023-05-14T18:52:58.611Z,13.53
2023-05-14T18:56:01.135Z,13.64
2023-05-14T18:59:04.418Z,13.58
2023-05-14T19:02:07.232Z,13.69
2023-05-14T19:05:09.919Z,13.58
2023-05-14T19:08:12.786Z,13.48
2023-05-14T19:11:16.323Z,13.54
2023-05-14T19:14:18.948Z,13.48
2023-05-14T19:17:21.712Z,13.52
2023-05-14T19:20:24.233Z,13.42
2023-05-14T19:23:26.946Z,13.42
2023-05-14T19:26:29.651Z,13.42
2023-05-14T19:29:33.608Z,13.36
2023-05-14T19:32:37.685Z,13.26
2023-05-14T19:35:40.644Z,13.18
2023-05-14T19:38:43.491Z,13.20
2023-05-14T19:41:46.008Z,13.26
2023-05-14T19:44:48.574Z,13.22
2023-05-14T19:47:51.574Z,13.27
2023-05-14T19:50:54.504Z,13.29
2023-05-14T19:53:57.130Z,13.26
2023-05-14T19:56:59.636Z,13.21
2023-05-14T20:00:02.418Z,13.24
2023-05-14T20:03:13.699Z,13.21
2023-05-14T20:06:17.537Z,13.18
2023-05-14T20:09:20.180Z,13.17
2023-05-14T20:12:22.898Z,13.15
2023-05-14T20:15:26.387Z,13.08
2023-05-14T20:18:29.476Z,13.12
2023-05-14T20:21:32.102Z,13.13
2023-05-14T20:24:34.855Z,13.13
2023-05-14T20:27:37.472Z,13.01
2023-05-14T20:30:40.808Z,13.09
2023-05-14T20:33:43.601Z,13.12
2023-05-14T20:36:46.045Z,13.10
2023-05-14T20:39:48.640Z,13.12
2023-05-14T20:42:51.177Z,13.10
2023-05-14T20:45:53.900Z,13.12
2023-05-14T20:48:57.201Z,13.17
2023-05-14T20:51:59.824Z,13.16
2023-05-14T20:55:02.580Z,13.08
2023-05-14T20:58:05.088Z,13.12
2023-05-14T21:01:08.199Z,13.15
2023-05-14T21:04:11.017Z,13.21
2023-05-14T21:07:13.531Z,13.19
2023-05-14T21:10:17.116Z,13.18
2023-05-14T21:13:19.586Z,13.22
2023-05-14T21:16:22.222Z,13.13
2023-05-14T21:19:25.061Z,13.13
2023-05-14T21:22:27.722Z,13.08
2023-05-14T21:25:30.419Z,13.10
2023-05-14T21:28:32.918Z,13.05
2023-05-14T21:31:35.623Z,13.03
2023-05-14T21:34:38.227Z,13.08
2023-05-14T21:37:40.952Z,13.06
2023-05-14T21:40:43.487Z,13.14
2023-05-14T21:43:45.870Z,13.13
2023-05-14T21:46:48.987Z,13.15
2023-05-14T21:49:51.639Z,13.10
2023-05-14T21:52:54.254Z,13.08
2023-05-14T21:55:56.926Z,13.12
2023-05-14T21:58:59.561Z,13.11
2023-05-14T22:05:08.051Z,13.09
2023-05-14T22:08:11.074Z,12.98
2023-05-14T22:11:13.978Z,13.01
2023-05-14T22:14:16.437Z,13.03
2023-05-14T22:17:18.930Z,12.97
2023-05-14T22:20:22.374Z,13.01
2023-05-14T22:23:24.762Z,13.04
2023-05-14T22:26:27.233Z,13.03
2023-05-14T22:29:29.662Z,13.06
2023-05-14T22:32:32.300Z,12.96
2023-05-14T22:35:35.194Z,13.03
2023-05-14T22:38:38.263Z,13.04
2023-05-14T22:41:40.803Z,13.01
2023-05-14T22:44:43.175Z,12.98
2023-05-14T22:47:45.796Z,12.99
2023-05-14T22:50:48.398Z,13.01
2023-05-14T22:53:51.121Z,12.91
2023-05-14T22:56:53.677Z,12.98
2023-05-14T22:59:56.445Z,12.92
2023-05-14T23:02:59.170Z,12.89
2023-05-14T23:06:01.724Z,12.82
2023-05-14T23:09:04.142Z,12.75
2023-05-14T23:12:07.089Z,12.78
2023-05-14T23:15:09.807Z,12.75
2023-05-14T23:18:12.620Z,12.73
2023-05-14T23:21:15.788Z,12.79
2023-05-14T23:24:18.309Z,12.64
2023-05-14T23:27:20.948Z,12.74
2023-05-14T23:30:23.426Z,12.73
2023-05-14T23:33:26.541Z,12.82
2023-05-14T23:36:31.415Z,12.78
2023-05-14T23:39:33.858Z,12.76
2023-05-14T23:42:36.414Z,12.82
2023-05-14T23:45:39.023Z,12.82
2023-05-14T23:48:42.214Z,12.94
2023-05-14T23:51:44.625Z,12.80
2023-05-14T23:54:47.532Z,12.92
2023-05-14T23:57:50.043Z,12.97
